Terminal Aerodrome Forecast
Issued by NWS

Home | Current Version | Previous Version | Text Only | Print | Product List | Glossary On
Versions: 1 2 3 4 5 6 7 8 9 10 11 12 13 14 15 16 17 18
000
FTUS45 KFGZ 031120
TAFSEZ
TAF
KSEZ 031120Z 0312/0412 03007KT P6SM SCT150
      TEMPO 0312/0313 -SHRA BKN080
     FM032130 22006KT P6SM SCT090 SCT120
     FM040300 04007KT P6SM FEW100 BKN120=

USA.gov is the U.S. government's official web portal to all federal, state and local government web resources and services.